KQPB

2017-07-28 14:30:12Z

Plaintext report →

Temperature
High39.2 °C102.6 °F
Current35.8 °C96.4 °F
Low34.0 °C93.2 °F
Feels Like48.0 °C118.5 °F
Dewpoint27.0 °C80.6 °F
Winds
Speed and Direction2.8 m/s6.3 mi/h 5 kn67 °
Gust7.8 m/s17.45 mi/h15 kn
SquallUnavailable
Pressure and Humidity
Pressure At Field Level996.1 mb29.4 in
Pressure At Sea Level998.7 mb29.5 in
Pressure Trend-0.6 mb -0.0 in
Pressure Tendency 5
Humidity61 %

Ceilometer Alarms / Warnings:

WARN:  Window Contaminated.
WARN:  Receiver Optical Crosstalk Compensation Poor.
WARN:  Ceilometer Tilt Angle Above 45 Degrees.
Historical

Additional Information:

  METAR KQPB 281430Z AUTO 07005G15KT M1/4SM NCD 36/27 A2941 RMK AO2 SLP987
  10392 20340 55005 PWINO $=    
Cloud Cover
Layer 1 Undetected
Layer 2 Undetected
Layer 3 Undetected
Winds
2-minute Winds
Minimum1.4 m/s3.13 mi/h 2 kn337 °
Average3.6 m/s8.05 mi/h 6 kn79 °
Maximum6.9 m/s15.43 mi/h13 kn177 °
10-minute Winds
Minimum1.3 m/s2.91 mi/h 2 kn337 °
Average4.0 m/s8.95 mi/h 7 kn74 °
Maximum7.8 m/s17.45 mi/h15 kn255 °
Precipitation
IntensityUnavailable
Rainfall
1-hour Total0.00 mm0.00 in
3-hour Total0.00 mm0.00 in
6-hour Total0.00 mm0.00 in
24-hour Total0.00 mm0.00 in
Precipitation
1-hour TotalUnavailable
3-hour TotalUnavailable
6-hour TotalUnavailable
24-hour TotalUnavailable